Time;durP1;ratioP1;P1;durP2;ratioP2;P2;SDS_P1;SDS_P2;PMS_P1;PMS_P2;Temp;Humidity;BMP_temperature;BMP_pressure;BME280_temperature;BME280_humidity;BME280_pressure;Samples;Min_cycle;Max_cycle;Signal;HPM_P1;HPM_P2
2022/01/26 00:00:06;;;;;;;;;33.50;33.50;;;;;3.89;100.00;103178.50;5035018;28;45233;-77
2022/01/26 00:07:53;;;;;;;;;38.50;31.75;;;;;3.95;100.00;103174.94;5034995;28;45449;-78
2022/01/26 00:10:19;;;;;;;;;38.00;29.25;;;;;3.94;100.00;103178.25;5019632;28;45299;-78
2022/01/26 00:12:45;;;;;;;;;36.75;32.00;;;;;3.96;100.00;103179.31;5038173;28;45217;-77
2022/01/26 00:15:11;;;;;;;;;37.00;30.00;;;;;3.98;100.00;103179.53;5053691;28;45415;-78
2022/01/26 00:17:38;;;;;;;;;38.25;31.00;;;;;3.99;100.00;103184.81;5051813;28;45272;-78
2022/01/26 00:23:22;;;;;;;;;36.00;29.50;;;;;3.90;100.00;103178.66;5004944;28;45450;-77
2022/01/26 00:26:06;;;;;;;;;28.00;22.75;;;;;3.92;100.00;103187.44;5038242;28;45541;-77
2022/01/26 00:28:57;;;;;;;;;34.00;27.25;;;;;3.96;100.00;103181.00;5020142;28;45867;-78
2022/01/26 00:38:33;;;;;;;;;35.00;26.50;;;;;4.04;100.00;103187.88;5038458;28;45390;-77
2022/01/26 00:39:49;;;;;;;;;35.25;28.75;;;;;4.07;100.00;103177.03;5037596;28;45998;-78
2022/01/26 00:42:15;;;;;;;;;38.75;31.75;;;;;4.08;100.00;103177.22;5019286;28;45479;-78
2022/01/26 00:44:45;;;;;;;;;32.75;28.75;;;;;4.09;100.00;103172.97;5038230;28;45403;-78
2022/01/26 00:47:11;;;;;;;;;42.75;28.25;;;;;4.12;100.00;103175.91;5037546;28;45386;-78
2022/01/26 00:49:37;;;;;;;;;42.25;30.75;;;;;4.11;100.00;103180.09;5037460;28;45979;-79
2022/01/26 00:52:06;;;;;;;;;31.50;26.50;;;;;4.14;100.00;103184.66;5037448;28;45300;-79
2022/01/26 00:54:32;;;;;;;;;38.75;30.75;;;;;4.13;100.00;103183.75;5037398;28;45375;-78
2022/01/26 00:56:57;;;;;;;;;36.25;32.50;;;;;4.14;100.00;103193.25;5019424;28;47006;-78
2022/01/26 00:59:23;;;;;;;;;37.25;29.25;;;;;4.11;100.00;103182.66;5038279;28;45298;-79
2022/01/26 01:01:49;;;;;;;;;38.50;32.50;;;;;4.14;100.00;103179.53;5035337;28;45415;-79
2022/01/26 01:04:14;;;;;;;;;36.25;27.00;;;;;4.14;100.00;103185.56;5037893;28;45338;-78
2022/01/26 01:06:47;;;;;;;;;33.00;27.25;;;;;4.13;100.00;103175.16;5031451;28;46109;-77
2022/01/26 01:09:14;;;;;;;;;37.25;31.00;;;;;4.09;100.00;103180.69;5037147;28;45462;-77
2022/01/26 01:11:39;;;;;;;;;31.25;25.50;;;;;4.07;100.00;103172.84;5033993;28;45375;-78
2022/01/26 01:14:05;;;;;;;;;29.50;25.25;;;;;4.06;100.00;103180.34;5045123;28;45215;-77
2022/01/26 01:16:31;;;;;;;;;42.00;31.00;;;;;4.03;100.00;103170.66;5057344;28;45240;-78
2022/01/26 01:19:06;;;;;;;;;47.00;29.00;;;;;4.08;100.00;103173.72;5039458;28;45386;-77
2022/01/26 01:30:11;;;;;;;;;36.75;29.25;;;;;4.25;100.00;103178.13;5037545;28;45837;-77
2022/01/26 01:32:51;;;;;;;;;33.25;26.75;;;;;4.25;100.00;103188.38;5036523;28;45388;-77
2022/01/26 01:35:18;;;;;;;;;35.25;31.25;;;;;4.26;100.00;103185.09;5037681;28;45365;-77
2022/01/26 01:37:44;;;;;;;;;34.00;22.50;;;;;4.27;100.00;103186.91;5036363;28;45937;-76
2022/01/26 01:40:10;;;;;;;;;32.25;26.75;;;;;4.25;100.00;103185.81;5036886;28;45903;-76
2022/01/26 01:42:36;;;;;;;;;38.50;33.00;;;;;4.24;100.00;103177.25;5018912;28;45302;-76
2022/01/26 01:45:04;;;;;;;;;31.00;26.50;;;;;4.27;100.00;103181.78;5037380;28;45292;-76
2022/01/26 01:47:30;;;;;;;;;37.75;27.00;;;;;4.27;100.00;103180.09;5036353;28;46639;-77
2022/01/26 01:49:56;;;;;;;;;32.25;25.00;;;;;4.28;100.00;103192.19;5019146;28;45901;-77
2022/01/26 01:52:23;;;;;;;;;31.75;25.25;;;;;4.29;100.00;103195.69;5037113;28;45441;-76
2022/01/26 01:54:53;;;;;;;;;33.50;28.75;;;;;4.29;100.00;103199.16;5037163;28;45441;-77
2022/01/26 01:57:24;;;;;;;;;39.00;28.25;;;;;4.26;100.00;103196.28;5036960;28;46655;-76
2022/01/26 01:59:51;;;;;;;;;35.25;28.75;;;;;4.25;100.00;103199.56;5018602;28;45926;-76
2022/01/26 02:02:17;;;;;;;;;27.75;24.50;;;;;4.29;100.00;103199.16;5036843;28;45394;-78
2022/01/26 02:04:42;;;;;;;;;33.00;27.25;;;;;4.31;100.00;103197.66;5036726;28;45264;-78
2022/01/26 02:07:10;;;;;;;;;31.00;23.25;;;;;4.33;100.00;103196.19;5036632;28;46294;-78
2022/01/26 02:09:35;;;;;;;;;29.50;26.50;;;;;4.36;100.00;103197.25;5036144;28;45923;-78
2022/01/26 02:12:13;;;;;;;;;33.25;26.50;;;;;4.38;100.00;103201.81;5036737;28;45149;-78
2022/01/26 02:14:43;;;;;;;;;32.75;27.25;;;;;4.39;100.00;103188.25;5018391;28;45458;-78
2022/01/26 02:57:36;;;;;;;;;35.25;26.25;;;;;4.55;100.00;103180.53;5036450;28;45374;-78
2022/01/26 03:05:46;;;;;;;;;28.50;24.00;;;;;4.59;100.00;103180.09;4974280;28;45376;-78
2022/01/26 03:08:12;;;;;;;;;33.25;30.75;;;;;4.61;100.00;103177.72;5008494;28;45584;-78
2022/01/26 03:10:47;;;;;;;;;36.75;29.00;;;;;4.63;100.00;103169.44;5035475;28;45411;-78
2022/01/26 03:13:18;;;;;;;;;32.50;25.25;;;;;4.67;100.00;103162.97;5035788;28;45400;-78
2022/01/26 03:15:50;;;;;;;;;25.00;25.00;;;;;4.71;100.00;103162.56;5035622;28;45287;-77
2022/01/26 03:18:53;;;;;;;;;21.00;18.75;;;;;4.73;100.00;103155.94;5036367;28;45383;-78
2022/01/26 03:21:05;;;;;;;;;34.25;30.00;;;;;4.76;100.00;103163.94;5035191;28;46468;-78
2022/01/26 03:29:12;;;;;;;;;30.00;29.50;;;;;4.73;100.00;103160.16;5035893;28;45314;-78
2022/01/26 03:32:20;;;;;;;;;32.50;26.00;;;;;4.74;100.00;103156.84;5034899;28;45429;-78
2022/01/26 03:34:29;;;;;;;;;35.50;30.50;;;;;4.74;100.00;103147.50;5034981;28;45492;-77
2022/01/26 03:36:59;;;;;;;;;34.75;30.50;;;;;4.75;100.00;103146.72;5035714;28;45485;-78
2022/01/26 03:39:26;;;;;;;;;34.50;28.25;;;;;4.78;100.00;103148.75;5035747;28;45485;-78
2022/01/26 03:44:21;;;;;;;;;29.75;25.25;;;;;4.82;100.00;103150.88;5036270;28;45385;-78
2022/01/26 03:46:50;;;;;;;;;45.75;33.75;;;;;4.84;100.00;103159.63;5038673;28;45362;-79
2022/01/26 03:49:16;;;;;;;;;31.50;27.75;;;;;4.84;100.00;103159.63;5038961;28;45520;-78
2022/01/26 03:51:42;;;;;;;;;41.50;33.25;;;;;4.81;100.00;103156.75;5038817;28;46295;-77
2022/01/26 03:54:09;;;;;;;;;41.00;32.25;;;;;4.80;100.00;103165.22;5038799;28;45901;-79
2022/01/26 03:56:36;;;;;;;;;37.00;30.25;;;;;4.77;100.00;103167.44;5038589;28;45330;-79
2022/01/26 03:59:02;;;;;;;;;34.75;32.50;;;;;4.77;100.00;103157.19;5038890;28;45438;-79
2022/01/26 04:01:28;;;;;;;;;30.75;26.75;;;;;4.78;100.00;103164.13;5038088;28;45369;-78
2022/01/26 04:03:53;;;;;;;;;38.00;27.75;;;;;4.78;100.00;103156.44;5039065;28;45271;-78
2022/01/26 04:06:19;;;;;;;;;47.00;36.50;;;;;4.79;100.00;103159.16;5039132;28;45301;-78
2022/01/26 04:08:45;;;;;;;;;52.00;33.75;;;;;4.83;100.00;103162.94;5038757;28;45349;-78
2022/01/26 04:13:51;;;;;;;;;44.00;32.75;;;;;4.88;100.00;103163.44;5038252;28;45402;-79
2022/01/26 04:16:17;;;;;;;;;42.00;35.75;;;;;4.91;100.00;103154.41;5038466;28;45232;-79
2022/01/26 04:18:43;;;;;;;;;47.50;36.50;;;;;4.92;100.00;103152.75;5038285;28;45531;-79
2022/01/26 04:26:29;;;;;;;;;36.50;32.25;;;;;4.87;100.00;103147.16;5039006;28;45537;-78
2022/01/26 04:29:01;;;;;;;;;34.75;25.25;;;;;4.85;100.00;103153.75;5038516;28;45232;-78
2022/01/26 04:31:27;;;;;;;;;46.25;32.75;;;;;4.83;100.00;103154.34;5034518;28;46146;-78
2022/01/26 04:33:53;;;;;;;;;34.25;30.50;;;;;4.83;100.00;103142.41;5038683;28;45341;-78
2022/01/26 04:36:28;;;;;;;;;48.00;32.50;;;;;4.88;100.00;103150.59;5019989;28;45368;-79
2022/01/26 04:38:58;;;;;;;;;44.50;40.00;;;;;4.90;100.00;103149.13;5033040;28;45223;-79
2022/01/26 04:41:32;;;;;;;;;47.75;35.00;;;;;4.93;100.00;103142.63;5038178;28;45394;-78
2022/01/26 04:44:05;;;;;;;;;45.00;36.25;;;;;4.95;100.00;103143.72;5038234;28;45203;-78
2022/01/26 04:46:31;;;;;;;;;41.75;36.50;;;;;4.96;100.00;103137.84;5019681;28;45553;-78
2022/01/26 04:48:57;;;;;;;;;40.25;34.50;;;;;4.98;100.00;103145.69;5038137;28;45276;-77
2022/01/26 04:51:22;;;;;;;;;39.00;36.25;;;;;4.96;100.00;103147.22;5037815;28;45910;-78
2022/01/26 04:53:48;;;;;;;;;51.50;39.00;;;;;4.98;100.00;103152.50;5037803;28;45348;-78
2022/01/26 04:56:14;;;;;;;;;46.25;38.25;;;;;4.98;100.00;103142.22;5036964;28;45587;-79
2022/01/26 04:58:42;;;;;;;;;43.25;38.00;;;;;5.00;100.00;103145.88;5037019;28;45448;-78
2022/01/26 05:01:07;;;;;;;;;46.50;36.50;;;;;4.98;100.00;103142.22;5037102;28;45419;-78
2022/01/26 05:03:33;;;;;;;;;47.25;39.00;;;;;4.97;100.00;103146.44;5037411;28;45391;-78
2022/01/26 05:05:58;;;;;;;;;42.00;36.00;;;;;4.94;100.00;103151.28;5037673;28;45438;-78
2022/01/26 05:08:24;;;;;;;;;50.50;36.25;;;;;4.90;100.00;103139.78;5038279;28;45459;-78
2022/01/26 05:10:49;;;;;;;;;46.50;38.00;;;;;4.87;100.00;103135.94;5036954;28;45457;-78
2022/01/26 05:13:16;;;;;;;;;51.50;40.00;;;;;4.86;100.00;103150.44;5037100;28;45436;-79
2022/01/26 05:15:42;;;;;;;;;50.75;37.25;;;;;4.85;100.00;103151.19;5037744;28;45881;-79
2022/01/26 05:18:09;;;;;;;;;47.50;36.50;;;;;4.84;100.00;103154.50;5037682;28;45463;-79
2022/01/26 05:20:35;;;;;;;;;54.50;41.00;;;;;4.84;100.00;103145.91;5037062;28;45619;-80
2022/01/26 05:23:01;;;;;;;;;47.25;39.25;;;;;4.84;100.00;103138.22;5037418;28;45327;-80
2022/01/26 05:25:27;;;;;;;;;52.50;40.75;;;;;4.85;100.00;103147.75;5036824;28;45506;-79
2022/01/26 05:27:53;;;;;;;;;53.50;40.00;;;;;4.87;100.00;103136.88;5037823;28;45533;-79
2022/01/26 05:30:18;;;;;;;;;58.75;44.75;;;;;4.87;100.00;103133.38;5037360;28;45363;-79
2022/01/26 05:32:44;;;;;;;;;50.00;39.00;;;;;4.87;100.00;103138.50;5019085;28;45558;-79
2022/01/26 05:35:10;;;;;;;;;55.00;43.25;;;;;4.86;100.00;103135.06;5019466;28;45287;-80
2022/01/26 05:37:36;;;;;;;;;55.00;42.50;;;;;4.88;100.00;103128.44;5019552;28;45222;-78
2022/01/26 05:40:03;;;;;;;;;50.50;41.50;;;;;4.91;100.00;103127.84;5037510;28;45335;-79
2022/01/26 05:42:29;;;;;;;;;36.25;27.00;;;;;4.92;100.00;103124.53;5036684;28;45373;-79
2022/01/26 05:45:01;;;;;;;;;54.75;41.25;;;;;4.97;100.00;103131.03;5037678;28;45461;-79
2022/01/26 05:47:27;;;;;;;;;46.75;39.50;;;;;4.99;100.00;103133.78;5020007;28;45553;-79
2022/01/26 05:49:53;;;;;;;;;49.00;38.00;;;;;5.01;100.00;103127.16;5037503;28;45275;-79
2022/01/26 05:52:18;;;;;;;;;52.50;41.00;;;;;5.04;100.00;103124.88;5037292;28;45339;-79
2022/01/26 05:54:44;;;;;;;;;58.00;43.50;;;;;5.04;100.00;103136.09;5037070;28;45515;-79
2022/01/26 05:57:10;;;;;;;;;57.50;44.25;;;;;5.02;100.00;103132.44;5037611;28;45549;-79
2022/01/26 05:59:35;;;;;;;;;50.25;40.00;;;;;5.04;100.00;103133.50;5036792;28;46246;-78
2022/01/26 06:02:01;;;;;;;;;58.00;43.00;;;;;5.06;100.00;103125.97;5036663;28;45343;-78
2022/01/26 06:04:28;;;;;;;;;52.50;40.50;;;;;5.08;100.00;103145.91;5037116;28;45355;-77
2022/01/26 06:06:54;;;;;;;;;55.50;44.25;;;;;5.11;100.00;103140.22;5036907;28;45592;-78
2022/01/26 06:09:20;;;;;;;;;54.25;40.25;;;;;5.15;100.00;103133.72;5036498;28;45375;-77
2022/01/26 06:11:46;;;;;;;;;53.75;39.75;;;;;5.16;100.00;103128.75;5036523;28;45279;-77
2022/01/26 06:14:11;;;;;;;;;51.00;41.75;;;;;5.19;100.00;103139.34;5037053;28;45751;-80
2022/01/26 06:16:37;;;;;;;;;56.00;43.00;;;;;5.22;100.00;103144.81;5036611;28;45264;-79
2022/01/26 06:19:03;;;;;;;;;57.50;42.50;;;;;5.25;100.00;103144.22;5035997;28;46238;-79
2022/01/26 06:21:28;;;;;;;;;60.75;46.50;;;;;5.27;100.00;103153.88;5017063;28;45316;-79
2022/01/26 06:23:54;;;;;;;;;53.25;39.75;;;;;5.28;100.00;103149.69;5036836;28;45339;-79
2022/01/26 06:26:20;;;;;;;;;54.50;43.75;;;;;5.31;100.00;103157.69;5018364;28;45735;-80
2022/01/26 06:28:45;;;;;;;;;60.25;42.50;;;;;5.35;100.00;103164.03;5034326;28;45828;-78
2022/01/26 06:31:16;;;;;;;;;55.25;41.25;;;;;5.40;100.00;103168.00;5035537;28;45370;-78
2022/01/26 06:33:43;;;;;;;;;55.75;43.25;;;;;5.41;100.00;103172.41;5017826;28;45369;-79
2022/01/26 06:36:12;;;;;;;;;50.00;38.25;;;;;5.43;100.00;103169.22;5036001;28;45495;-77
2022/01/26 06:38:43;;;;;;;;;48.75;40.25;;;;;5.44;100.00;103177.88;5035710;28;45448;-78
2022/01/26 06:41:10;;;;;;;;;47.50;39.00;;;;;5.40;100.00;103186.88;5036196;28;45701;-77
2022/01/26 06:43:45;;;;;;;;;54.25;44.25;;;;;5.40;100.00;103189.44;5035517;28;45470;-79
2022/01/26 06:46:10;;;;;;;;;60.75;46.50;;;;;5.41;100.00;103190.38;5035577;28;45584;-79
2022/01/26 06:48:46;;;;;;;;;59.25;45.25;;;;;5.42;100.00;103189.63;5035561;28;45419;-79
2022/01/26 06:51:13;;;;;;;;;56.75;40.75;;;;;5.45;100.00;103200.25;5038039;28;45418;-77
2022/01/26 06:53:39;;;;;;;;;55.75;41.50;;;;;5.45;100.00;103195.09;5034662;28;45414;-77
2022/01/26 06:56:05;;;;;;;;;59.00;45.50;;;;;5.45;100.00;103200.25;5035654;28;45656;-79
2022/01/26 06:58:31;;;;;;;;;55.75;43.50;;;;;5.43;100.00;103194.03;5035222;28;46015;-78
2022/01/26 07:00:57;;;;;;;;;55.75;43.50;;;;;5.42;100.00;103202.47;5017228;28;45866;-77
2022/01/26 07:03:24;;;;;;;;;59.75;44.25;;;;;5.37;100.00;103199.44;5030907;28;45483;-79
2022/01/26 07:05:50;;;;;;;;;59.75;43.25;;;;;5.38;100.00;103200.31;5025360;28;45633;-80
2022/01/26 07:08:16;;;;;;;;;60.50;45.50;;;;;5.36;100.00;103194.13;5016979;28;47815;-80
2022/01/26 07:10:44;;;;;;;;;57.50;47.00;;;;;5.34;100.00;103196.53;5028924;28;45437;-80
2022/01/26 07:13:11;;;;;;;;;60.00;47.00;;;;;5.33;100.00;103189.56;5025255;28;45539;-79
2022/01/26 07:21:23;;;;;;;;;57.00;43.25;;;;;5.38;100.00;103182.34;5027754;28;45786;-79
2022/01/26 07:23:49;;;;;;;;;57.25;44.25;;;;;5.38;100.00;103180.72;5015619;28;45348;-79
2022/01/26 07:26:16;;;;;;;;;61.75;45.00;;;;;5.40;100.00;103188.56;5027588;28;45649;-81
2022/01/26 07:28:41;;;;;;;;;55.75;43.50;;;;;5.41;100.00;103186.13;5016511;28;46553;-79
2022/01/26 07:31:09;;;;;;;;;58.50;45.75;;;;;5.43;100.00;103194.03;5033621;28;45606;-79
2022/01/26 07:33:36;;;;;;;;;56.50;44.75;;;;;5.43;100.00;103194.03;5030008;28;45514;-79
2022/01/26 07:36:03;;;;;;;;;62.25;47.00;;;;;5.46;100.00;103194.31;5027458;28;45540;-80
2022/01/26 07:38:29;;;;;;;;;71.50;49.25;;;;;5.49;100.00;103192.09;5035336;28;45461;-81
2022/01/26 07:40:55;;;;;;;;;60.25;46.00;;;;;5.54;100.00;103189.97;5022977;28;45451;-79
2022/01/26 07:43:22;;;;;;;;;57.50;44.00;;;;;5.52;100.00;103189.84;5024307;28;45556;-80
2022/01/26 07:45:48;;;;;;;;;59.75;46.25;;;;;5.57;100.00;103201.50;5030286;28;45400;-80
2022/01/26 07:48:14;;;;;;;;;57.25;41.50;;;;;5.58;100.00;103199.84;5018104;28;45418;-87
2022/01/26 07:50:41;;;;;;;;;55.50;43.00;;;;;5.56;100.00;103194.53;5023789;28;45408;-83
2022/01/26 07:53:13;;;;;;;;;61.50;47.75;;;;;5.56;100.00;103202.22;5016993;28;45403;-80
2022/01/26 07:55:39;;;;;;;;;59.50;46.25;;;;;5.59;100.00;103211.94;5032872;28;45529;-78
2022/01/26 07:58:05;;;;;;;;;57.75;44.00;;;;;5.61;100.00;103218.16;5034146;28;46579;-78
2022/01/26 08:00:32;;;;;;;;;64.75;48.75;;;;;5.63;100.00;103219.19;5033442;28;45462;-82
2022/01/26 08:02:57;;;;;;;;;64.00;48.25;;;;;5.64;100.00;103207.28;5038223;28;45344;-81
2022/01/26 08:05:24;;;;;;;;;61.25;46.00;;;;;5.65;100.00;103183.41;5035905;28;45394;-81
2022/01/26 08:07:50;;;;;;;;;64.00;44.00;;;;;5.67;100.00;103185.38;5036430;28;46340;-84
2022/01/26 08:10:16;;;;;;;;;61.25;46.00;;;;;5.66;100.00;103185.22;5041375;28;45316;-87
2022/01/26 08:12:41;;;;;;;;;51.75;41.75;;;;;5.61;100.00;103182.19;5034556;28;45904;-84
2022/01/26 08:15:07;;;;;;;;;59.75;45.00;;;;;5.57;100.00;103188.63;5036708;28;45362;-91
2022/01/26 08:17:34;;;;;;;;;57.50;42.00;;;;;5.56;100.00;103191.97;5035242;28;45459;-86
2022/01/26 08:20:00;;;;;;;;;63.00;47.00;;;;;5.54;100.00;103175.50;5033157;28;45437;-80
2022/01/26 08:22:28;;;;;;;;;60.50;43.25;;;;;5.52;100.00;103179.56;5030313;28;45415;-80
2022/01/26 08:24:53;;;;;;;;;62.00;46.25;;;;;5.53;100.00;103183.03;5033214;28;45368;-80
2022/01/26 08:27:21;;;;;;;;;56.50;42.00;;;;;5.54;100.00;103183.22;5033972;28;46072;-80
2022/01/26 08:29:51;;;;;;;;;58.75;44.50;;;;;5.53;100.00;103189.09;5026805;28;45449;-78
2022/01/26 08:32:17;;;;;;;;;56.00;44.25;;;;;5.55;100.00;103184.09;5019843;28;45492;-91
2022/01/26 08:34:43;;;;;;;;;52.25;40.00;;;;;5.55;100.00;103168.69;5042842;28;45561;-81
2022/01/26 08:37:09;;;;;;;;;67.50;47.50;;;;;5.56;100.00;103160.22;5037648;28;46166;-81
2022/01/26 08:39:36;;;;;;;;;60.75;45.00;;;;;5.58;100.00;103189.56;5027876;28;45459;-86
2022/01/26 08:42:05;;;;;;;;;59.25;45.00;;;;;5.57;100.00;103196.34;5035085;28;45132;-81
2022/01/26 08:44:32;;;;;;;;;53.75;44.75;;;;;5.61;100.00;103197.59;5018205;28;45595;-81
2022/01/26 08:46:58;;;;;;;;;58.25;41.75;;;;;5.63;100.00;103196.06;5027882;28;46089;-79
2022/01/26 08:49:27;;;;;;;;;54.50;43.50;;;;;5.62;100.00;103199.38;5038093;28;45351;-82
2022/01/26 08:51:53;;;;;;;;;51.25;41.75;;;;;5.64;100.00;103212.41;5037021;28;45418;-83
2022/01/26 08:54:22;;;;;;;;;51.00;41.75;;;;;5.65;100.00;103219.38;5038448;28;45539;-83
2022/01/26 08:56:52;;;;;;;;;55.25;39.50;;;;;5.67;100.00;103212.75;5019893;28;46487;-80
2022/01/26 08:59:20;;;;;;;;;54.50;41.50;;;;;5.66;100.00;103213.50;5027307;28;45281;-79
2022/01/26 09:01:46;;;;;;;;;58.00;44.50;;;;;5.68;100.00;103211.97;5017426;28;45313;-80
2022/01/26 09:04:12;;;;;;;;;48.25;41.00;;;;;5.68;100.00;103212.91;5027385;28;45343;-78
2022/01/26 09:06:51;;;;;;;;;59.50;43.25;;;;;5.70;100.00;103215.63;5037397;28;45308;-78
2022/01/26 09:09:22;;;;;;;;;57.00;44.25;;;;;5.73;100.00;103219.41;5036356;28;45402;-79
2022/01/26 09:11:49;;;;;;;;;51.00;39.25;;;;;5.79;100.00;103231.09;5037374;28;45319;-79
2022/01/26 09:14:21;;;;;;;;;62.75;46.00;;;;;5.81;100.00;103233.06;5037722;28;45234;-79
2022/01/26 09:16:50;;;;;;;;;59.00;46.25;;;;;5.84;100.00;103233.38;5019100;28;46849;-79
2022/01/26 09:19:30;;;;;;;;;62.50;45.25;;;;;5.86;100.00;103242.16;5037863;28;45668;-79
2022/01/26 09:22:04;;;;;;;;;58.75;44.50;;;;;5.88;100.00;103242.31;5037970;28;45535;-79
2022/01/26 09:24:32;;;;;;;;;57.00;41.75;;;;;5.89;100.00;103244.13;5037590;28;45437;-79
2022/01/26 09:26:58;;;;;;;;;51.50;41.75;;;;;5.91;100.00;103239.13;5037450;28;45245;-79
2022/01/26 09:29:25;;;;;;;;;37.00;31.25;;;;;5.91;100.00;103244.28;5019777;28;45293;-78
2022/01/26 09:31:51;;;;;;;;;43.50;38.25;;;;;5.92;100.00;103248.69;5037003;28;45301;-79
2022/01/26 09:34:18;;;;;;;;;51.25;42.25;;;;;5.87;100.00;103244.00;5037942;28;46190;-79
2022/01/26 09:36:44;;;;;;;;;57.75;45.00;;;;;5.89;100.00;103239.88;5037081;28;45367;-79
2022/01/26 09:39:11;;;;;;;;;52.00;39.50;;;;;5.94;100.00;103249.75;5037096;28;45421;-77
2022/01/26 09:41:39;;;;;;;;;50.75;37.00;;;;;5.93;100.00;103250.50;5036578;28;45314;-79
2022/01/26 09:44:05;;;;;;;;;47.00;39.00;;;;;5.91;100.00;103245.22;5019060;28;45490;-79
2022/01/26 09:46:31;;;;;;;;;53.75;42.00;;;;;5.89;100.00;103246.72;5036648;28;45313;-78
2022/01/26 09:48:57;;;;;;;;;56.25;40.25;;;;;5.92;100.00;103261.53;5037199;28;45240;-77
2022/01/26 09:51:23;;;;;;;;;51.00;40.75;;;;;5.94;100.00;103265.19;5037326;28;45346;-77
2022/01/26 09:54:03;;;;;;;;;57.25;41.75;;;;;5.90;100.00;103269.09;5036859;28;45227;-78
2022/01/26 09:56:29;;;;;;;;;52.00;39.75;;;;;5.95;100.00;103279.84;5036548;28;46603;-78
2022/01/26 09:58:55;;;;;;;;;63.75;44.25;;;;;5.95;100.00;103274.72;5039999;28;45240;-79
2022/01/26 10:01:21;;;;;;;;;57.50;43.00;;;;;5.97;100.00;103279.25;5040489;28;45237;-78
2022/01/26 10:03:48;;;;;;;;;62.75;46.75;;;;;6.00;100.00;103273.53;5036983;28;45421;-78
2022/01/26 10:06:34;;;;;;;;;58.75;42.75;;;;;6.05;100.00;103269.81;5036727;28;45380;-80
2022/01/26 10:09:38;;;;;;;;;55.50;42.25;;;;;6.09;100.00;103269.38;5018898;28;45914;-80
2022/01/26 10:17:45;;;;;;;;;67.50;47.50;;;;;6.12;100.00;103264.53;5036400;28;45748;-79
2022/01/26 10:20:17;;;;;;;;;67.25;49.50;;;;;6.16;100.00;103264.09;5036625;28;45428;-81
2022/01/26 10:22:44;;;;;;;;;58.00;46.00;;;;;6.18;100.00;103260.03;5036982;28;45341;-79
2022/01/26 10:25:16;;;;;;;;;64.50;48.25;;;;;6.22;100.00;103258.69;5019475;28;45722;-80
2022/01/26 10:27:58;;;;;;;;;57.50;44.75;;;;;6.25;100.00;103259.00;5036855;28;45821;-81
2022/01/26 10:30:24;;;;;;;;;58.00;43.50;;;;;6.27;100.00;103244.59;5037441;28;45879;-81
2022/01/26 10:32:50;;;;;;;;;59.25;43.25;;;;;6.30;100.00;103239.78;5036621;28;45472;-81
2022/01/26 10:35:16;;;;;;;;;58.75;44.50;;;;;6.33;100.00;103231.44;5037468;28;45621;-80
2022/01/26 10:37:49;;;;;;;;;61.00;46.50;;;;;6.36;100.00;103247.22;5036410;28;46003;-82
2022/01/26 10:40:20;;;;;;;;;59.00;44.25;;;;;6.40;100.00;103266.44;5036445;28;45753;-81
2022/01/26 10:43:15;;;;;;;;;57.75;45.25;;;;;6.39;100.00;103268.13;5035997;28;45375;-81
2022/01/26 10:48:54;;;;;;;;;63.50;46.00;;;;;6.37;100.00;103236.16;5036060;28;45443;-81
2022/01/26 10:51:38;;;;;;;;;68.50;51.75;;;;;6.46;100.00;103252.53;5036688;28;45189;-81
2022/01/26 10:54:11;;;;;;;;;60.00;48.75;;;;;6.50;100.00;103251.16;5035645;28;45334;-79
2022/01/26 10:56:38;;;;;;;;;56.25;41.75;;;;;6.51;100.00;103232.41;5037089;28;45506;-80
2022/01/26 10:59:04;;;;;;;;;57.25;46.25;;;;;6.53;100.00;103235.16;5036300;28;45368;-81
2022/01/26 11:01:30;;;;;;;;;12.75;9.00;;;;;6.53;100.00;103240.28;5018003;28;45180;-82
2022/01/26 11:03:55;;;;;;;;;57.75;48.25;;;;;6.50;100.00;103240.88;5036598;28;45341;-80
2022/01/26 11:06:21;;;;;;;;;61.75;46.50;;;;;6.46;100.00;103236.19;5036151;28;46654;-79
2022/01/26 11:08:48;;;;;;;;;57.00;46.75;;;;;6.47;100.00;103232.88;5017089;28;47672;-87
2022/01/26 11:11:24;;;;;;;;;60.00;46.00;;;;;6.46;100.00;103229.38;5036191;28;45974;-83
2022/01/26 11:13:50;;;;;;;;;60.00;47.25;;;;;6.45;100.00;103229.22;5036089;28;45231;-83
2022/01/26 11:16:20;;;;;;;;;56.50;45.50;;;;;6.47;100.00;103236.34;5036099;28;45517;-81
2022/01/26 11:18:46;;;;;;;;;58.00;42.25;;;;;6.49;100.00;103232.25;5035511;28;46073;-78
2022/01/26 11:21:23;;;;;;;;;60.50;44.50;;;;;6.54;100.00;103218.91;5018345;28;45511;-81
2022/01/26 11:23:50;;;;;;;;;58.50;43.75;;;;;6.55;100.00;103203.66;5035115;28;45453;-84
2022/01/26 11:26:24;;;;;;;;;58.50;46.00;;;;;6.57;100.00;103197.00;5025776;28;45219;-81
2022/01/26 11:28:50;;;;;;;;;62.25;46.00;;;;;6.60;100.00;103204.13;5017248;28;47194;-80
2022/01/26 11:31:17;;;;;;;;;63.00;48.75;;;;;6.66;100.00;103210.78;5035896;28;45240;-80
2022/01/26 11:33:44;;;;;;;;;62.50;46.25;;;;;6.90;100.00;103213.97;5037374;28;45375;-85
2022/01/26 11:36:16;;;;;;;;;64.00;47.00;;;;;7.01;100.00;103214.13;5024630;28;45650;-82
2022/01/26 11:47:18;;;;;;;;;62.00;47.25;;;;;6.97;100.00;103195.78;5037523;28;45437;-83
2022/01/26 11:49:44;;;;;;;;;55.25;41.00;;;;;6.94;100.00;103184.28;5036994;28;46029;-82
2022/01/26 11:52:22;;;;;;;;;54.50;44.75;;;;;6.91;100.00;103178.81;5035417;28;46003;-83
2022/01/26 11:55:00;;;;;;;;;55.50;42.50;;;;;6.83;100.00;103175.47;4989620;28;45450;-88
2022/01/26 11:57:43;;;;;;;;;63.50;48.25;;;;;6.84;100.00;103168.69;5031480;28;45174;-81
2022/01/26 12:00:14;;;;;;;;;62.25;46.00;;;;;6.81;100.00;103170.19;5044714;28;45387;-80
2022/01/26 12:02:52;;;;;;;;;59.25;47.00;;;;;6.81;100.00;103166.69;5018513;28;45222;-78
2022/01/26 12:05:22;;;;;;;;;64.75;50.50;;;;;6.81;100.00;103164.13;5032017;28;45344;-84
2022/01/26 12:07:54;;;;;;;;;60.00;45.25;;;;;6.81;100.00;103162.47;5041186;28;45236;-84
2022/01/26 12:10:27;;;;;;;;;56.75;44.50;;;;;6.85;100.00;103153.38;5039121;28;46606;-79
2022/01/26 12:13:01;;;;;;;;;60.00;45.50;;;;;6.85;100.00;103153.38;5042428;28;45374;-81
2022/01/26 12:15:39;;;;;;;;;63.50;47.00;;;;;6.85;100.00;103153.38;5030773;28;45401;-81
2022/01/26 12:42:12;;;;;;;;;60.00;45.75;;;;;6.77;100.00;103155.19;5025279;28;45451;-83
2022/01/26 12:44:38;;;;;;;;;54.50;41.75;;;;;6.77;100.00;103150.03;5018331;28;45316;-81
2022/01/26 12:47:07;;;;;;;;;65.25;52.50;;;;;6.78;100.00;103167.31;5037064;28;46642;-80
2022/01/26 12:49:33;;;;;;;;;63.00;49.00;;;;;6.79;100.00;103163.09;5038727;28;45499;-82
2022/01/26 12:52:02;;;;;;;;;59.25;45.75;;;;;6.77;100.00;103160.34;5038111;28;45472;-81
2022/01/26 12:54:27;;;;;;;;;62.75;49.00;;;;;6.77;100.00;103151.72;5006932;28;45846;-79
2022/01/26 12:57:03;;;;;;;;;66.00;47.75;;;;;6.83;100.00;103152.31;5032907;28;45395;-82
2022/01/26 12:59:29;;;;;;;;;62.00;47.00;;;;;6.85;100.00;103155.94;5035205;28;45583;-78
2022/01/26 13:01:54;;;;;;;;;64.00;50.00;;;;;6.85;100.00;103150.78;5020217;28;46862;-80
2022/01/26 13:04:20;;;;;;;;;58.50;45.00;;;;;6.85;100.00;103148.22;5036961;28;45517;-79
2022/01/26 13:06:51;;;;;;;;;65.25;48.00;;;;;6.82;100.00;103148.84;5019996;28;45332;-79
2022/01/26 13:09:20;;;;;;;;;66.25;48.50;;;;;6.84;100.00;103137.78;5039142;28;45439;-80
2022/01/26 13:11:48;;;;;;;;;53.50;45.75;;;;;6.81;100.00;103139.28;5018689;28;46019;-81
2022/01/26 13:14:28;;;;;;;;;58.50;42.25;;;;;6.78;100.00;103146.72;5018295;28;45422;-79
2022/01/26 13:17:14;;;;;;;;;57.75;44.75;;;;;6.76;100.00;103137.03;4999868;28;45389;-79
2022/01/26 13:25:34;;;;;;;;;60.25;45.75;;;;;6.66;100.00;103138.72;5037766;28;45916;-81
2022/01/26 13:28:22;;;;;;;;;66.75;50.00;;;;;6.65;100.00;103139.47;5037050;28;45474;-80
2022/01/26 13:31:24;;;;;;;;;68.00;52.50;;;;;6.64;100.00;103132.50;5029317;28;45384;-83
2022/01/26 13:37:06;;;;;;;;;62.75;49.50;;;;;6.64;100.00;103140.22;5036921;28;45837;-84